createdAt,value
2023-01-09T00:00:54.431Z,2.78
2023-01-09T00:03:21.280Z,1.67
2023-01-09T00:05:47.861Z,2.47
2023-01-09T00:08:14.806Z,2.85
2023-01-09T00:10:41.523Z,1.85
2023-01-09T00:13:11.446Z,1.08
2023-01-09T00:15:39.057Z,1.95
2023-01-09T00:18:05.810Z,0.93
2023-01-09T00:20:32.456Z,1.80
2023-01-09T00:22:59.018Z,3.28
2023-01-09T00:25:25.624Z,1.60
2023-01-09T00:27:52.195Z,2.88
2023-01-09T00:30:18.836Z,1.38
2023-01-09T00:32:45.481Z,1.92
2023-01-09T00:35:16.387Z,1.10
2023-01-09T00:37:43.190Z,2.45
2023-01-09T00:40:11.786Z,3.58
2023-01-09T00:42:38.540Z,1.92
2023-01-09T00:45:10.645Z,2.83
2023-01-09T00:47:42.763Z,1.60
2023-01-09T00:50:24.743Z,1.75
2023-01-09T00:52:54.775Z,1.30
2023-01-09T00:55:21.483Z,3.80
2023-01-09T00:57:48.569Z,1.52
2023-01-09T01:00:15.713Z,3.55
2023-01-09T01:02:42.351Z,1.50
2023-01-09T01:05:28.047Z,0.68
2023-01-09T01:07:54.624Z,1.25
2023-01-09T01:10:24.179Z,1.10
2023-01-09T01:12:51.735Z,4.13
2023-01-09T01:15:18.852Z,3.78
2023-01-09T01:17:45.913Z,4.40
2023-01-09T01:20:16.057Z,2.58
2023-01-09T01:22:42.712Z,1.77
2023-01-09T01:25:11.270Z,1.77
2023-01-09T01:27:38.321Z,2.35
2023-01-09T01:30:06.285Z,3.00
2023-01-09T01:32:32.892Z,2.65
2023-01-09T01:34:59.518Z,1.77
2023-01-09T01:37:27.654Z,2.38
2023-01-09T01:39:54.321Z,3.22
2023-01-09T01:42:21.315Z,4.82
2023-01-09T01:45:08.754Z,2.97
2023-01-09T01:47:49.380Z,3.20
2023-01-09T01:50:40.487Z,5.28
2023-01-09T01:53:11.033Z,3.67
2023-01-09T01:55:42.843Z,3.22
2023-01-09T01:58:12.545Z,4.82
2023-01-09T02:00:43.602Z,3.08
2023-01-09T02:03:12.184Z,3.40
2023-01-09T02:05:39.510Z,4.40
2023-01-09T02:08:07.935Z,2.30
2023-01-09T02:10:35.502Z,2.83
2023-01-09T02:13:03.114Z,2.50
2023-01-09T02:15:39.787Z,4.03
2023-01-09T02:18:27.639Z,3.05
2023-01-09T02:21:22.251Z,2.33
2023-01-09T02:24:00.687Z,2.97
2023-01-09T02:26:55.956Z,1.70
2023-01-09T02:29:49.364Z,2.20
2023-01-09T02:32:21.752Z,1.95
2023-01-09T02:35:19.382Z,1.42
2023-01-09T02:37:45.983Z,5.18
2023-01-09T02:40:25.263Z,1.52
2023-01-09T02:42:52.876Z,3.78
2023-01-09T02:45:19.441Z,2.58
2023-01-09T02:47:46.817Z,3.15
2023-01-09T02:50:30.864Z,1.73
2023-01-09T02:53:15.543Z,2.90
2023-01-09T02:55:53.973Z,4.22
2023-01-09T02:59:04.394Z,2.47
2023-01-09T03:01:36.962Z,4.38
2023-01-09T03:04:27.117Z,8.27
2023-01-09T03:07:21.587Z,3.05
2023-01-09T03:09:52.239Z,3.63
2023-01-09T03:12:22.610Z,4.00
2023-01-09T03:14:53.220Z,5.07
2023-01-09T03:17:31.883Z,2.92
2023-01-09T03:20:02.663Z,4.35
2023-01-09T03:22:29.378Z,5.07
2023-01-09T03:24:56.071Z,5.28
2023-01-09T03:27:22.852Z,5.38
2023-01-09T03:29:49.636Z,5.78
2023-01-09T03:32:16.270Z,3.22
2023-01-09T03:34:42.834Z,2.97
2023-01-09T03:37:09.493Z,4.18
2023-01-09T03:39:36.104Z,3.60
2023-01-09T03:42:02.681Z,5.65
2023-01-09T03:44:29.256Z,6.72
2023-01-09T03:46:55.819Z,3.53
2023-01-09T03:49:22.500Z,3.15
2023-01-09T03:51:49.078Z,3.08
2023-01-09T03:54:15.682Z,2.70
2023-01-09T03:56:42.276Z,5.28
2023-01-09T03:59:08.860Z,2.38
2023-01-09T04:01:35.578Z,4.50
2023-01-09T04:04:02.360Z,3.90
2023-01-09T04:06:29.167Z,3.70
2023-01-09T04:08:55.779Z,5.00
2023-01-09T04:11:22.428Z,2.40
2023-01-09T04:13:49.017Z,3.88
2023-01-09T04:16:15.712Z,6.38
2023-01-09T04:18:42.384Z,4.82
2023-01-09T04:21:09.021Z,7.43
2023-01-09T04:23:35.876Z,3.22
2023-01-09T04:26:03.145Z,5.03
2023-01-09T04:28:29.815Z,5.32
2023-01-09T04:30:56.411Z,4.28
2023-01-09T04:33:22.980Z,3.63
2023-01-09T04:35:49.544Z,2.75
2023-01-09T04:38:16.139Z,5.97
2023-01-09T04:40:42.713Z,3.15
2023-01-09T04:43:09.388Z,4.93
2023-01-09T04:45:36.021Z,3.75
2023-01-09T04:48:02.742Z,4.65
2023-01-09T04:50:31.286Z,3.65
2023-01-09T04:52:58.345Z,2.70
2023-01-09T04:55:24.949Z,4.47
2023-01-09T04:57:51.563Z,5.85
2023-01-09T05:00:18.323Z,5.40
2023-01-09T05:02:44.913Z,4.30
2023-01-09T05:05:12.825Z,6.28
2023-01-09T05:07:39.997Z,5.05
2023-01-09T05:10:07.438Z,4.03
2023-01-09T05:12:37.142Z,6.90
2023-01-09T05:15:05.165Z,3.92
2023-01-09T05:17:31.755Z,3.47
2023-01-09T05:19:58.494Z,2.58
2023-01-09T05:22:25.079Z,2.70
2023-01-09T05:24:51.694Z,5.40
2023-01-09T05:27:18.625Z,5.05
2023-01-09T05:29:45.176Z,3.22
2023-01-09T05:32:11.793Z,6.25
2023-01-09T05:34:38.352Z,3.72
2023-01-09T05:37:04.924Z,6.07
2023-01-09T05:39:31.844Z,1.33
2023-01-09T05:41:58.510Z,2.58
2023-01-09T05:44:25.117Z,4.28
2023-01-09T05:46:51.672Z,2.22
2023-01-09T05:49:18.359Z,4.00
2023-01-09T05:51:44.949Z,4.13
2023-01-09T05:54:11.584Z,6.80
2023-01-09T05:56:38.188Z,4.35
2023-01-09T05:59:04.821Z,7.22
2023-01-09T06:01:31.444Z,4.88
2023-01-09T06:03:58.095Z,3.72
2023-01-09T06:06:25.810Z,2.97
2023-01-09T06:08:52.399Z,5.18
2023-01-09T06:11:18.995Z,1.73
2023-01-09T06:13:45.708Z,6.00
2023-01-09T06:16:13.823Z,3.63
2023-01-09T06:18:40.641Z,3.22
2023-01-09T06:21:07.566Z,3.75
2023-01-09T06:23:34.249Z,2.95
2023-01-09T06:26:00.811Z,5.88
2023-01-09T06:28:27.386Z,4.25
2023-01-09T06:30:54.098Z,2.97
2023-01-09T06:33:20.800Z,6.70
2023-01-09T06:35:47.410Z,5.97
2023-01-09T06:38:14.053Z,6.72
2023-01-09T06:40:40.621Z,4.07
2023-01-09T06:43:07.242Z,5.93
2023-01-09T06:45:34.035Z,6.07
2023-01-09T06:48:01.792Z,2.22
2023-01-09T06:50:28.522Z,3.95
2023-01-09T06:52:55.131Z,3.97
2023-01-09T06:55:21.755Z,7.60
2023-01-09T06:57:48.515Z,2.95
2023-01-09T07:00:15.577Z,4.10
2023-01-09T07:02:42.194Z,5.47
2023-01-09T07:05:11.384Z,2.13
2023-01-09T07:07:39.495Z,6.22
2023-01-09T07:10:07.374Z,4.65
2023-01-09T07:12:33.952Z,6.15
2023-01-09T07:15:00.610Z,5.22
2023-01-09T07:17:27.398Z,4.65
2023-01-09T07:19:54.028Z,6.45
2023-01-09T07:22:20.608Z,6.78
2023-01-09T07:24:47.511Z,2.63
2023-01-09T07:27:14.152Z,2.45
2023-01-09T07:29:40.734Z,3.38
2023-01-09T07:32:07.666Z,6.85
2023-01-09T07:34:34.357Z,7.75
2023-01-09T07:37:01.026Z,9.55
2023-01-09T07:39:27.643Z,4.30
2023-01-09T07:41:54.261Z,4.47
2023-01-09T07:44:20.923Z,4.97
2023-01-09T07:46:48.056Z,4.68
2023-01-09T07:49:14.606Z,7.72
2023-01-09T07:51:43.132Z,8.85
2023-01-09T07:54:11.006Z,5.72
2023-01-09T07:56:37.709Z,3.70
2023-01-09T07:59:04.294Z,5.65
2023-01-09T08:01:31.008Z,6.03
2023-01-09T08:03:57.750Z,10.23
2023-01-09T08:06:24.351Z,7.97
2023-01-09T08:08:51.011Z,8.52
2023-01-09T08:11:17.589Z,7.28
2023-01-09T08:13:44.183Z,6.03
2023-01-09T08:16:10.870Z,3.30
2023-01-09T08:18:37.478Z,8.18
2023-01-09T08:21:04.215Z,7.53
2023-01-09T08:23:30.863Z,6.15
2023-01-09T08:25:57.460Z,7.57
2023-01-09T08:28:24.158Z,4.75
2023-01-09T08:30:50.938Z,7.25
2023-01-09T08:33:17.595Z,4.90
2023-01-09T08:35:44.875Z,6.30
2023-01-09T08:38:11.583Z,5.03
2023-01-09T08:40:38.522Z,7.10
2023-01-09T08:43:23.607Z,5.78
2023-01-09T08:46:08.980Z,8.55
2023-01-09T08:48:35.695Z,6.78
2023-01-09T08:51:02.379Z,7.65
2023-01-09T08:53:30.382Z,6.97
2023-01-09T08:55:57.062Z,4.85
2023-01-09T08:58:23.750Z,5.85
2023-01-09T09:00:50.338Z,6.18
2023-01-09T09:03:17.492Z,6.68
2023-01-09T09:05:46.695Z,7.82
2023-01-09T09:08:13.602Z,6.53
2023-01-09T09:10:40.214Z,6.15
2023-01-09T09:13:06.892Z,5.85
2023-01-09T09:15:34.280Z,5.78
2023-01-09T09:18:03.586Z,4.57
2023-01-09T09:20:32.489Z,7.30
2023-01-09T09:22:59.160Z,6.97
2023-01-09T09:25:26.319Z,9.20
2023-01-09T09:27:53.019Z,7.90
2023-01-09T09:30:20.379Z,7.93
2023-01-09T09:32:47.159Z,6.70
2023-01-09T09:35:13.994Z,6.22
2023-01-09T09:37:40.732Z,4.97
2023-01-09T09:40:18.662Z,4.03
2023-01-09T09:43:34.105Z,7.68
2023-01-09T09:46:23.044Z,6.85
2023-01-09T09:48:57.874Z,6.38
2023-01-09T09:51:35.614Z,6.60
2023-01-09T09:54:14.122Z,7.78
2023-01-09T09:57:03.466Z,7.72
2023-01-09T09:59:36.763Z,8.85
2023-01-09T10:02:10.434Z,3.97
2023-01-09T10:04:45.836Z,7.22
2023-01-09T10:07:23.603Z,2.45
2023-01-09T10:09:54.932Z,8.50
2023-01-09T10:12:37.671Z,7.10
2023-01-09T10:15:44.977Z,4.22
2023-01-09T10:18:30.625Z,4.82
2023-01-09T10:21:04.962Z,5.53
2023-01-09T10:23:59.523Z,6.47
2023-01-09T10:26:43.159Z,4.57
2023-01-09T10:29:43.788Z,8.10
2023-01-09T10:32:38.345Z,7.55
2023-01-09T10:35:19.806Z,5.65
2023-01-09T10:37:48.627Z,5.25
2023-01-09T10:40:21.408Z,8.20
2023-01-09T10:42:52.898Z,9.48
2023-01-09T10:45:42.472Z,7.63
2023-01-09T10:48:26.411Z,7.70
2023-01-09T10:50:55.837Z,6.50
2023-01-09T10:53:28.701Z,7.05
2023-01-09T10:56:00.368Z,5.70
2023-01-09T10:58:27.398Z,5.05
2023-01-09T11:00:56.061Z,7.18
2023-01-09T11:03:25.026Z,3.45
2023-01-09T11:05:56.413Z,5.88
2023-01-09T11:08:44.364Z,5.22
2023-01-09T11:11:12.768Z,10.23
2023-01-09T11:13:45.245Z,7.50
2023-01-09T11:16:19.699Z,6.25
2023-01-09T11:18:58.665Z,8.75
2023-01-09T11:21:36.041Z,5.07
2023-01-09T11:24:21.259Z,4.22
2023-01-09T11:26:50.022Z,5.82
2023-01-09T11:29:19.237Z,4.95
2023-01-09T11:31:54.988Z,3.47
2023-01-09T11:34:28.401Z,4.65
2023-01-09T11:37:05.095Z,6.55
2023-01-09T11:39:33.658Z,7.47
2023-01-09T11:42:02.855Z,6.10
2023-01-09T11:44:31.413Z,5.22
2023-01-09T11:46:58.747Z,1.85
2023-01-09T11:49:30.588Z,5.60
2023-01-09T11:52:22.388Z,3.72
2023-01-09T11:54:58.421Z,4.03
2023-01-09T11:57:25.901Z,5.75
2023-01-09T11:59:54.291Z,5.07
2023-01-09T12:02:35.517Z,4.68
2023-01-09T12:05:19.000Z,4.07
2023-01-09T12:08:03.026Z,2.58
2023-01-09T12:11:00.113Z,3.22
2023-01-09T12:13:35.424Z,4.90
2023-01-09T12:16:20.523Z,4.35
2023-01-09T12:18:59.096Z,4.38
2023-01-09T12:21:40.648Z,4.70
2023-01-09T12:24:19.181Z,6.60
2023-01-09T12:27:04.472Z,4.72
2023-01-09T12:29:50.130Z,6.60
2023-01-09T12:32:41.545Z,4.90
2023-01-09T12:35:23.193Z,3.63
2023-01-09T12:38:41.088Z,4.75
2023-01-09T12:41:50.847Z,4.13
2023-01-09T12:44:48.138Z,6.65
2023-01-09T12:47:22.529Z,5.15
2023-01-09T12:50:03.837Z,4.97
2023-01-09T12:52:46.590Z,5.00
2023-01-09T12:55:18.566Z,5.20
2023-01-09T12:57:49.070Z,4.85
2023-01-09T13:00:18.815Z,5.68
2023-01-09T13:03:11.338Z,4.95
2023-01-09T13:05:46.409Z,5.32
2023-01-09T13:08:23.925Z,4.97
2023-01-09T13:11:03.291Z,6.35
2023-01-09T13:14:02.184Z,7.53
2023-01-09T13:16:36.608Z,6.07
2023-01-09T13:19:16.441Z,5.30
2023-01-09T13:21:43.367Z,7.60
2023-01-09T13:24:16.191Z,6.50
2023-01-09T13:26:54.094Z,7.60
2023-01-09T13:29:34.604Z,5.60
2023-01-09T13:32:31.807Z,5.65
2023-01-09T13:34:59.161Z,7.68
2023-01-09T13:37:35.155Z,7.07
2023-01-09T13:40:05.304Z,5.32
2023-01-09T13:42:47.647Z,5.40
2023-01-09T13:45:17.348Z,5.38
2023-01-09T13:47:44.486Z,9.48
2023-01-09T13:50:11.080Z,8.50
2023-01-09T13:52:41.608Z,4.07
2023-01-09T13:55:11.305Z,8.13
2023-01-09T13:58:15.964Z,4.68
2023-01-09T14:00:42.791Z,7.25
2023-01-09T14:03:09.370Z,7.50
2023-01-09T14:05:35.931Z,7.30
2023-01-09T14:08:32.199Z,5.32
2023-01-09T14:11:01.942Z,6.88
2023-01-09T14:13:34.497Z,4.18
2023-01-09T14:16:23.690Z,7.20
2023-01-09T14:19:05.465Z,7.68
2023-01-09T14:22:01.550Z,10.35
2023-01-09T14:24:52.403Z,6.82
2023-01-09T14:27:56.766Z,7.25
2023-01-09T14:30:26.665Z,4.75
2023-01-09T14:33:17.543Z,8.02
2023-01-09T14:36:04.888Z,8.32
2023-01-09T14:38:42.591Z,6.68
2023-01-09T14:41:54.464Z,5.90
2023-01-09T14:44:48.794Z,7.35
2023-01-09T14:47:30.417Z,5.55
2023-01-09T14:49:59.180Z,8.00
2023-01-09T14:52:32.472Z,10.30
2023-01-09T14:55:02.632Z,6.95
2023-01-09T14:57:34.132Z,7.72
2023-01-09T15:00:22.156Z,6.45
2023-01-09T15:02:50.429Z,8.82
2023-01-09T15:05:23.520Z,6.07
2023-01-09T15:07:54.527Z,8.25
2023-01-09T15:10:24.159Z,6.07
2023-01-09T15:12:53.916Z,7.82
2023-01-09T15:15:22.147Z,6.72
2023-01-09T15:17:56.575Z,9.50
2023-01-09T15:20:29.768Z,6.38
2023-01-09T15:22:57.729Z,5.35
2023-01-09T15:25:38.894Z,7.50
2023-01-09T15:28:31.890Z,7.30
2023-01-09T15:31:09.646Z,7.20
2023-01-09T15:33:40.025Z,7.97
2023-01-09T15:36:18.240Z,7.32
2023-01-09T15:38:46.908Z,7.07
2023-01-09T15:41:38.117Z,7.13
2023-01-09T15:44:06.926Z,6.68
2023-01-09T15:46:33.541Z,6.90
2023-01-09T15:49:00.299Z,6.30
2023-01-09T15:51:27.504Z,5.88
2023-01-09T15:53:57.419Z,9.90
2023-01-09T15:56:30.243Z,8.20
2023-01-09T15:58:58.837Z,9.43
2023-01-09T16:01:38.157Z,10.60
2023-01-09T16:04:12.407Z,8.02
2023-01-09T16:06:48.631Z,5.90
2023-01-09T16:09:16.935Z,6.95
2023-01-09T16:11:48.995Z,7.57
2023-01-09T16:14:23.285Z,9.15
2023-01-09T16:16:51.976Z,5.15
2023-01-09T16:19:46.163Z,9.57
2023-01-09T16:22:27.590Z,9.38
2023-01-09T16:24:57.343Z,6.95
2023-01-09T16:27:27.032Z,6.45
2023-01-09T16:29:57.761Z,10.18
2023-01-09T16:32:30.899Z,7.55
2023-01-09T16:35:00.648Z,7.05
2023-01-09T16:37:27.407Z,7.85
2023-01-09T16:40:08.743Z,8.95
2023-01-09T16:42:53.797Z,5.90
2023-01-09T16:45:21.124Z,8.02
2023-01-09T16:47:47.754Z,7.53
2023-01-09T16:50:14.422Z,8.52
2023-01-09T16:52:41.062Z,9.75
2023-01-09T16:55:09.461Z,6.30
2023-01-09T16:57:36.521Z,6.75
2023-01-09T17:00:05.128Z,9.05
2023-01-09T17:02:31.784Z,7.53
2023-01-09T17:04:59.333Z,8.50
2023-01-09T17:07:25.956Z,7.13
2023-01-09T17:09:53.283Z,7.93
2023-01-09T17:12:22.019Z,7.45
2023-01-09T17:14:49.464Z,6.88
2023-01-09T17:17:17.440Z,6.45
2023-01-09T17:19:46.533Z,6.28
2023-01-09T17:22:14.150Z,7.95
2023-01-09T17:24:59.831Z,9.20
2023-01-09T17:27:49.815Z,8.88
2023-01-09T17:30:20.130Z,9.02
2023-01-09T17:32:48.225Z,8.20
2023-01-09T17:35:16.101Z,5.25
2023-01-09T17:37:42.987Z,5.78
2023-01-09T17:40:21.052Z,4.35
2023-01-09T17:42:47.657Z,4.32
2023-01-09T17:45:14.893Z,4.82
2023-01-09T17:47:41.656Z,5.38
2023-01-09T17:50:20.982Z,5.55
2023-01-09T17:52:48.879Z,4.38
2023-01-09T17:55:15.624Z,5.05
2023-01-09T17:57:44.165Z,5.07
2023-01-09T18:00:36.641Z,4.75
2023-01-09T18:03:04.957Z,5.90
2023-01-09T18:05:31.582Z,6.05
2023-01-09T18:07:58.257Z,8.75
2023-01-09T18:10:27.189Z,10.18
2023-01-09T18:12:56.057Z,8.68
2023-01-09T18:15:24.373Z,9.15
2023-01-09T18:17:52.047Z,7.40
2023-01-09T18:20:19.433Z,7.03
2023-01-09T18:22:46.209Z,12.10
2023-01-09T18:25:12.938Z,8.80
2023-01-09T18:27:39.680Z,7.53
2023-01-09T18:30:07.076Z,9.50
2023-01-09T18:32:33.820Z,10.18
2023-01-09T18:35:00.645Z,8.68
2023-01-09T18:37:27.323Z,12.00
2023-01-09T18:39:53.988Z,9.85
2023-01-09T18:42:20.553Z,10.10
2023-01-09T18:44:47.151Z,12.63
2023-01-09T18:47:14.206Z,11.27
2023-01-09T18:49:40.802Z,13.13
2023-01-09T18:52:07.808Z,8.95
2023-01-09T18:54:34.711Z,9.00
2023-01-09T18:57:01.523Z,11.15
2023-01-09T18:59:28.106Z,10.10
2023-01-09T19:01:54.702Z,10.63
2023-01-09T19:04:21.647Z,10.32
2023-01-09T19:06:49.072Z,14.48
2023-01-09T19:09:15.837Z,10.68
2023-01-09T19:11:44.340Z,9.27
2023-01-09T19:14:11.791Z,11.27
2023-01-09T19:16:38.525Z,10.43
2023-01-09T19:19:06.403Z,14.50
2023-01-09T19:21:33.227Z,11.57
2023-01-09T19:23:59.907Z,9.75
2023-01-09T19:26:28.231Z,9.90
2023-01-09T19:28:57.309Z,11.57
2023-01-09T19:31:26.213Z,9.60
2023-01-09T19:33:53.461Z,11.57
2023-01-09T19:36:21.379Z,10.68
2023-01-09T19:38:48.069Z,9.55
2023-01-09T19:41:19.023Z,10.38
2023-01-09T19:43:46.527Z,11.88
2023-01-09T19:46:18.419Z,9.80
2023-01-09T19:48:45.904Z,10.88
2023-01-09T19:51:13.419Z,13.00
2023-01-09T19:53:40.203Z,11.05
2023-01-09T19:56:15.198Z,11.35
2023-01-09T19:58:43.277Z,9.93
2023-01-09T20:01:12.283Z,10.38
2023-01-09T20:03:44.135Z,10.18
2023-01-09T20:06:14.253Z,11.30
2023-01-09T20:08:41.877Z,9.05
2023-01-09T20:11:08.461Z,9.88
2023-01-09T20:13:35.243Z,11.00
2023-01-09T20:16:02.269Z,8.40
2023-01-09T20:18:30.024Z,7.47
2023-01-09T20:20:56.750Z,6.93
2023-01-09T20:23:27.061Z,7.22
2023-01-09T20:25:54.525Z,8.25
2023-01-09T20:28:21.999Z,8.43
2023-01-09T20:30:51.436Z,9.10
2023-01-09T20:33:19.656Z,9.02
2023-01-09T20:35:46.676Z,7.03
2023-01-09T20:38:13.906Z,6.82
2023-01-09T20:40:43.882Z,9.60
2023-01-09T20:43:12.530Z,7.65
2023-01-09T20:45:40.251Z,6.80
2023-01-09T20:48:07.381Z,6.13
2023-01-09T20:50:33.955Z,6.20
2023-01-09T20:53:00.517Z,9.00
2023-01-09T20:55:27.120Z,7.20
2023-01-09T20:57:53.742Z,7.68
2023-01-09T21:00:20.744Z,7.93
2023-01-09T21:02:47.482Z,8.68
2023-01-09T21:05:14.115Z,7.45
2023-01-09T21:07:40.713Z,6.03
2023-01-09T21:10:07.687Z,7.43
2023-01-09T21:12:38.252Z,8.13
2023-01-09T21:15:09.170Z,8.40
2023-01-09T21:17:37.541Z,5.35
2023-01-09T21:20:06.206Z,7.38
2023-01-09T21:22:33.707Z,9.43
2023-01-09T21:25:00.325Z,8.95
2023-01-09T21:27:31.656Z,10.27
2023-01-09T21:29:58.274Z,7.75
2023-01-09T21:32:24.896Z,8.82
2023-01-09T21:34:51.494Z,7.82
2023-01-09T21:37:18.072Z,6.90
2023-01-09T21:39:44.741Z,10.70
2023-01-09T21:42:30.068Z,13.25
2023-01-09T21:45:15.517Z,10.38
2023-01-09T21:47:42.093Z,11.82
2023-01-09T21:50:09.228Z,13.10
2023-01-09T21:52:36.889Z,11.70
2023-01-09T21:55:03.611Z,9.60
2023-01-09T21:57:30.190Z,11.32
2023-01-09T21:59:56.781Z,12.02
2023-01-09T22:02:23.453Z,9.70
2023-01-09T22:04:50.104Z,12.55
2023-01-09T22:07:17.080Z,10.50
2023-01-09T22:09:44.621Z,10.50
2023-01-09T22:12:14.045Z,10.82
2023-01-09T22:14:40.671Z,10.63
2023-01-09T22:17:07.268Z,10.52
2023-01-09T22:19:33.906Z,10.55
2023-01-09T22:22:02.424Z,11.02
2023-01-09T22:24:29.067Z,10.50
2023-01-09T22:26:55.619Z,10.80
2023-01-09T22:29:22.253Z,11.13
2023-01-09T22:31:48.936Z,10.45
2023-01-09T22:34:17.626Z,9.77
2023-01-09T22:36:46.001Z,11.68
2023-01-09T22:39:18.417Z,8.15
2023-01-09T22:41:45.299Z,9.02
2023-01-09T22:44:12.685Z,8.80
2023-01-09T22:46:39.360Z,9.48
2023-01-09T22:49:06.210Z,12.63
2023-01-09T22:51:33.671Z,9.45
2023-01-09T22:54:00.940Z,9.48
2023-01-09T22:56:27.728Z,10.13
2023-01-09T22:58:55.686Z,13.60
2023-01-09T23:01:22.766Z,8.52
2023-01-09T23:03:49.473Z,8.90
2023-01-09T23:06:18.520Z,11.70
2023-01-09T23:08:46.714Z,11.55
2023-01-09T23:11:17.320Z,10.30
2023-01-09T23:13:43.865Z,9.45
2023-01-09T23:16:10.441Z,12.43
2023-01-09T23:18:37.000Z,9.95
2023-01-09T23:21:04.958Z,9.85
2023-01-09T23:23:32.447Z,8.68
2023-01-09T23:26:02.040Z,8.95
2023-01-09T23:28:30.230Z,11.35
2023-01-09T23:30:56.874Z,10.35
2023-01-09T23:33:23.460Z,10.35
2023-01-09T23:35:50.043Z,10.32
2023-01-09T23:38:16.643Z,12.02
2023-01-09T23:40:43.355Z,10.02
2023-01-09T23:43:11.692Z,12.63
2023-01-09T23:45:40.306Z,8.98
2023-01-09T23:48:08.471Z,9.70
2023-01-09T23:50:36.241Z,10.80
2023-01-09T23:53:03.706Z,11.65
2023-01-09T23:55:30.682Z,10.30
2023-01-09T23:57:57.411Z,8.23
